Terminal Aerodrome Forecast
Issued by NWS Cleveland, OH

Home | Current Version | Previous Version | Graphics & Text | Print | Product List | Glossary Off
Versions: 1 2 3 4 5 6 7 8 9 10 11 12 13 14 15 16

113
FTUS41 KCLE 272339
TAFERI
TAF
KERI 272339Z 2800/2824 VRB03KT P6SM OVC050
     FM280400 16007KT P6SM SCT050 BKN120
     FM281500 16012KT P6SM -SHRA OVC050
     FM281700 18012G20KT P6SM -SHRA OVC020=

USA.gov is the U.S. government's official web portal to all federal, state and local government web resources and services.